sensor_id;sensor_type;location;lat;lon;timestamp;pressure;altitude;pressure_sealevel;temperature;humidity
74045;BME280;62389;51.412;5.436;2022-11-04T00:01:43;100103.06;;;9.23;92.06
74045;BME280;62389;51.412;5.436;2022-11-04T00:04:10;100094.47;;;9.21;91.71
74045;BME280;62389;51.412;5.436;2022-11-04T00:06:36;100106.59;;;9.22;90.86
74045;BME280;62389;51.412;5.436;2022-11-04T00:09:03;100111.13;;;9.19;91.62
74045;BME280;62389;51.412;5.436;2022-11-04T00:11:28;100114.72;;;9.16;91.40
74045;BME280;62389;51.412;5.436;2022-11-04T00:14:13;100118.41;;;9.12;91.61
74045;BME280;62389;51.412;5.436;2022-11-04T00:16:41;100109.88;;;9.08;92.04
74045;BME280;62389;51.412;5.436;2022-11-04T00:19:25;100121.44;;;9.03;91.19
74045;BME280;62389;51.412;5.436;2022-11-04T00:21:50;100118.22;;;8.98;91.86
74045;BME280;62389;51.412;5.436;2022-11-04T00:24:34;100127.97;;;8.94;91.78
74045;BME280;62389;51.412;5.436;2022-11-04T00:27:20;100125.44;;;8.93;91.10
74045;BME280;62389;51.412;5.436;2022-11-04T00:30:06;100136.03;;;8.90;91.06
74045;BME280;62389;51.412;5.436;2022-11-04T00:32:32;100138.00;;;8.85;91.20
74045;BME280;62389;51.412;5.436;2022-11-04T00:35:17;100145.13;;;8.81;91.97
74045;BME280;62389;51.412;5.436;2022-11-04T00:37:43;100133.97;;;8.77;91.45
74045;BME280;62389;51.412;5.436;2022-11-04T00:40:11;100141.81;;;8.77;91.44
74045;BME280;62389;51.412;5.436;2022-11-04T00:42:37;100142.66;;;8.78;91.02
74045;BME280;62389;51.412;5.436;2022-11-04T00:45:03;100148.69;;;8.78;91.65
74045;BME280;62389;51.412;5.436;2022-11-04T00:47:29;100141.66;;;8.80;92.14
74045;BME280;62389;51.412;5.436;2022-11-04T00:49:54;100133.72;;;8.84;91.51
74045;BME280;62389;51.412;5.436;2022-11-04T00:52:20;100151.09;;;8.83;91.33
74045;BME280;62389;51.412;5.436;2022-11-04T00:54:46;100152.88;;;8.82;90.87
74045;BME280;62389;51.412;5.436;2022-11-04T00:57:12;100159.78;;;8.84;91.56
74045;BME280;62389;51.412;5.436;2022-11-04T00:59:37;100156.09;;;8.88;91.80
74045;BME280;62389;51.412;5.436;2022-11-04T01:02:07;100161.19;;;8.91;91.18
74045;BME280;62389;51.412;5.436;2022-11-04T01:04:33;100171.47;;;8.94;91.52
74045;BME280;62389;51.412;5.436;2022-11-04T01:06:59;100169.75;;;8.93;90.89
74045;BME280;62389;51.412;5.436;2022-11-04T01:09:25;100169.84;;;8.91;91.12
74045;BME280;62389;51.412;5.436;2022-11-04T01:11:50;100173.28;;;8.92;90.88
74045;BME280;62389;51.412;5.436;2022-11-04T01:14:16;100182.97;;;8.90;90.87
74045;BME280;62389;51.412;5.436;2022-11-04T01:16:41;100183.94;;;8.87;91.13
74045;BME280;62389;51.412;5.436;2022-11-04T01:19:08;100187.56;;;8.85;91.61
74045;BME280;62389;51.412;5.436;2022-11-04T01:21:34;100186.75;;;8.82;91.40
74045;BME280;62389;51.412;5.436;2022-11-04T01:24:00;100184.44;;;8.76;91.90
74045;BME280;62389;51.412;5.436;2022-11-04T01:26:26;100189.88;;;8.72;91.48
74045;BME280;62389;51.412;5.436;2022-11-04T01:28:53;100187.34;;;8.70;92.12
74045;BME280;62389;51.412;5.436;2022-11-04T01:31:21;100183.06;;;8.69;91.94
74045;BME280;62389;51.412;5.436;2022-11-04T01:33:48;100183.19;;;8.66;91.98
74045;BME280;62389;51.412;5.436;2022-11-04T01:36:14;100176.38;;;8.64;91.99
74045;BME280;62389;51.412;5.436;2022-11-04T01:38:40;100185.16;;;8.61;91.85
74045;BME280;62389;51.412;5.436;2022-11-04T01:41:07;100180.03;;;8.60;91.25
74045;BME280;62389;51.412;5.436;2022-11-04T01:48:58;100188.19;;;8.52;91.00
74045;BME280;62389;51.412;5.436;2022-11-04T01:51:26;100188.34;;;8.49;91.12
74045;BME280;62389;51.412;5.436;2022-11-04T01:53:54;100183.25;;;8.46;91.61
74045;BME280;62389;51.412;5.436;2022-11-04T01:56:20;100185.09;;;8.44;91.30
74045;BME280;62389;51.412;5.436;2022-11-04T01:58:52;100184.28;;;8.42;91.12
74045;BME280;62389;51.412;5.436;2022-11-04T02:01:18;100180.13;;;8.38;91.60
74045;BME280;62389;51.412;5.436;2022-11-04T02:04:00;100185.50;;;8.33;90.84
74045;BME280;62389;51.412;5.436;2022-11-04T02:06:46;100182.22;;;8.29;90.96
74045;BME280;62389;51.412;5.436;2022-11-04T02:09:13;100182.34;;;8.26;91.11
74045;BME280;62389;51.412;5.436;2022-11-04T02:11:38;100186.84;;;8.23;91.28
74045;BME280;62389;51.412;5.436;2022-11-04T02:14:22;100194.81;;;8.20;91.23
74045;BME280;62389;51.412;5.436;2022-11-04T02:16:48;100203.59;;;8.17;91.38
74045;BME280;62389;51.412;5.436;2022-11-04T02:19:39;100199.38;;;8.15;91.44
74045;BME280;62389;51.412;5.436;2022-11-04T02:28:22;100200.50;;;8.09;90.81
74045;BME280;62389;51.412;5.436;2022-11-04T02:34:02;100206.75;;;8.05;90.91
74045;BME280;62389;51.412;5.436;2022-11-04T02:36:45;100203.22;;;8.06;90.78
74045;BME280;62389;51.412;5.436;2022-11-04T02:39:34;100201.38;;;8.08;90.54
74045;BME280;62389;51.412;5.436;2022-11-04T02:42:13;100206.53;;;8.10;91.09
74045;BME280;62389;51.412;5.436;2022-11-04T02:44:50;100201.34;;;8.10;91.09
74045;BME280;62389;51.412;5.436;2022-11-04T02:47:25;100198.78;;;8.08;90.99
74045;BME280;62389;51.412;5.436;2022-11-04T02:50:16;100199.69;;;8.07;90.23
74045;BME280;62389;51.412;5.436;2022-11-04T02:52:46;100204.06;;;8.07;90.58
74045;BME280;62389;51.412;5.436;2022-11-04T02:55:37;100199.69;;;8.07;90.63
74045;BME280;62389;51.412;5.436;2022-11-04T02:58:07;100202.31;;;8.07;90.38
74045;BME280;62389;51.412;5.436;2022-11-04T03:00:37;100198.94;;;8.05;90.91
74045;BME280;62389;51.412;5.436;2022-11-04T03:03:10;100199.78;;;8.05;90.33
74045;BME280;62389;51.412;5.436;2022-11-04T03:05:39;100200.97;;;7.98;90.47
74045;BME280;62389;51.412;5.436;2022-11-04T03:08:15;100200.25;;;7.95;90.47
74045;BME280;62389;51.412;5.436;2022-11-04T03:10:44;100210.72;;;7.93;90.40
74045;BME280;62389;51.412;5.436;2022-11-04T03:13:29;100210.78;;;7.92;90.76
74045;BME280;62389;51.412;5.436;2022-11-04T03:16:00;100208.91;;;7.95;90.73
74045;BME280;62389;51.412;5.436;2022-11-04T03:21:02;100210.50;;;7.98;90.23
74045;BME280;62389;51.412;5.436;2022-11-04T03:23:30;100207.91;;;7.98;90.40
74045;BME280;62389;51.412;5.436;2022-11-04T03:26:04;100208.81;;;7.97;90.73
74045;BME280;62389;51.412;5.436;2022-11-04T03:28:34;100207.91;;;7.98;90.60
74045;BME280;62389;51.412;5.436;2022-11-04T03:31:06;100205.38;;;7.96;90.46
74045;BME280;62389;51.412;5.436;2022-11-04T03:33:43;100206.38;;;7.94;90.48
74045;BME280;62389;51.412;5.436;2022-11-04T03:36:11;100208.16;;;7.92;89.93
74045;BME280;62389;51.412;5.436;2022-11-04T03:38:37;100209.00;;;7.92;89.86
74045;BME280;62389;51.412;5.436;2022-11-04T03:41:07;100210.84;;;7.90;90.25
74045;BME280;62389;51.412;5.436;2022-11-04T03:43:35;100215.22;;;7.90;90.45
74045;BME280;62389;51.412;5.436;2022-11-04T03:46:01;100209.28;;;7.86;89.63
74045;BME280;62389;51.412;5.436;2022-11-04T03:48:28;100211.16;;;7.83;90.16
74045;BME280;62389;51.412;5.436;2022-11-04T03:50:54;100214.81;;;7.78;90.29
74045;BME280;62389;51.412;5.436;2022-11-04T03:53:21;100215.72;;;7.77;90.61
74045;BME280;62389;51.412;5.436;2022-11-04T03:56:07;100214.03;;;7.76;90.24
74045;BME280;62389;51.412;5.436;2022-11-04T04:04:06;100213.38;;;7.71;90.02
74045;BME280;62389;51.412;5.436;2022-11-04T04:06:34;100215.25;;;7.68;90.46
74045;BME280;62389;51.412;5.436;2022-11-04T04:09:25;100207.44;;;7.68;90.11
74045;BME280;62389;51.412;5.436;2022-11-04T04:12:00;100208.44;;;7.65;90.15
74045;BME280;62389;51.412;5.436;2022-11-04T04:14:34;100218.84;;;7.65;90.29
74045;BME280;62389;51.412;5.436;2022-11-04T04:17:07;100218.00;;;7.65;90.35
74045;BME280;62389;51.412;5.436;2022-11-04T04:19:33;100211.09;;;7.64;90.27
74045;BME280;62389;51.412;5.436;2022-11-04T04:22:30;100223.28;;;7.63;89.85
74045;BME280;62389;51.412;5.436;2022-11-04T04:25:00;100219.81;;;7.63;91.12
74045;BME280;62389;51.412;5.436;2022-11-04T04:27:47;100222.47;;;7.61;90.46
74045;BME280;62389;51.412;5.436;2022-11-04T04:30:15;100226.00;;;7.60;90.28
74045;BME280;62389;51.412;5.436;2022-11-04T04:32:42;100229.44;;;7.61;90.10
74045;BME280;62389;51.412;5.436;2022-11-04T04:35:09;100224.31;;;7.59;90.91
74045;BME280;62389;51.412;5.436;2022-11-04T04:37:56;100232.22;;;7.56;90.91
74045;BME280;62389;51.412;5.436;2022-11-04T04:40:47;100238.34;;;7.55;90.87
74045;BME280;62389;51.412;5.436;2022-11-04T04:43:34;100230.53;;;7.55;90.53
74045;BME280;62389;51.412;5.436;2022-11-04T04:46:18;100233.22;;;7.53;90.63
74045;BME280;62389;51.412;5.436;2022-11-04T04:48:44;100238.47;;;7.52;90.37
74045;BME280;62389;51.412;5.436;2022-11-04T04:51:09;100239.38;;;7.51;90.10
74045;BME280;62389;51.412;5.436;2022-11-04T04:53:34;100237.69;;;7.50;90.53
74045;BME280;62389;51.412;5.436;2022-11-04T04:56:00;100240.38;;;7.48;90.88
74045;BME280;62389;51.412;5.436;2022-11-04T04:58:25;100249.13;;;7.46;90.60
74045;BME280;62389;51.412;5.436;2022-11-04T05:00:50;100244.91;;;7.43;90.43
74045;BME280;62389;51.412;5.436;2022-11-04T05:03:16;100251.84;;;7.43;90.52
74045;BME280;62389;51.412;5.436;2022-11-04T05:05:41;100251.84;;;7.43;90.55
74045;BME280;62389;51.412;5.436;2022-11-04T05:08:07;100257.91;;;7.43;90.52
74045;BME280;62389;51.412;5.436;2022-11-04T05:10:32;100256.16;;;7.44;90.17
74045;BME280;62389;51.412;5.436;2022-11-04T05:12:59;100245.75;;;7.44;90.90
74045;BME280;62389;51.412;5.436;2022-11-04T05:15:43;100256.94;;;7.46;91.02
74045;BME280;62389;51.412;5.436;2022-11-04T05:18:09;100251.66;;;7.47;90.77
74045;BME280;62389;51.412;5.436;2022-11-04T05:20:35;100260.19;;;7.51;90.89
74045;BME280;62389;51.412;5.436;2022-11-04T05:23:02;100266.13;;;7.55;91.29
74045;BME280;62389;51.412;5.436;2022-11-04T05:25:28;100268.56;;;7.59;90.95
74045;BME280;62389;51.412;5.436;2022-11-04T05:27:53;100273.63;;;7.62;90.78
74045;BME280;62389;51.412;5.436;2022-11-04T05:30:18;100266.59;;;7.64;90.57
74045;BME280;62389;51.412;5.436;2022-11-04T05:32:44;100273.44;;;7.67;90.11
74045;BME280;62389;51.412;5.436;2022-11-04T05:35:09;100273.44;;;7.67;90.77
74045;BME280;62389;51.412;5.436;2022-11-04T05:37:35;100287.28;;;7.67;90.62
74045;BME280;62389;51.412;5.436;2022-11-04T05:40:00;100273.31;;;7.70;90.14
74045;BME280;62389;51.412;5.436;2022-11-04T05:42:25;100277.59;;;7.71;90.39
74045;BME280;62389;51.412;5.436;2022-11-04T05:44:51;100279.28;;;7.72;90.03
74045;BME280;62389;51.412;5.436;2022-11-04T05:47:16;100284.56;;;7.70;90.44
74045;BME280;62389;51.412;5.436;2022-11-04T05:49:41;100283.81;;;7.68;90.23
74045;BME280;62389;51.412;5.436;2022-11-04T05:52:07;100283.06;;;7.65;90.20
74045;BME280;62389;51.412;5.436;2022-11-04T05:54:32;100295.34;;;7.61;90.69
74045;BME280;62389;51.412;5.436;2022-11-04T05:56:58;100297.19;;;7.59;90.45
74045;BME280;62389;51.412;5.436;2022-11-04T05:59:23;100299.78;;;7.59;90.48
74045;BME280;62389;51.412;5.436;2022-11-04T06:01:48;100295.50;;;7.58;90.52
74045;BME280;62389;51.412;5.436;2022-11-04T06:04:16;100302.63;;;7.53;89.95
74045;BME280;62389;51.412;5.436;2022-11-04T06:06:42;100299.16;;;7.52;90.36
74045;BME280;62389;51.412;5.436;2022-11-04T06:09:08;100301.81;;;7.51;90.70
74045;BME280;62389;51.412;5.436;2022-11-04T06:11:34;100302.75;;;7.50;90.12
74045;BME280;62389;51.412;5.436;2022-11-04T06:13:59;100309.63;;;7.51;90.41
74045;BME280;62389;51.412;5.436;2022-11-04T06:16:25;100309.72;;;7.49;89.52
74045;BME280;62389;51.412;5.436;2022-11-04T06:18:51;100307.28;;;7.45;90.01
74045;BME280;62389;51.412;5.436;2022-11-04T06:21:20;100311.69;;;7.43;89.79
74045;BME280;62389;51.412;5.436;2022-11-04T06:23:48;100317.88;;;7.40;89.74
74045;BME280;62389;51.412;5.436;2022-11-04T06:26:14;100322.34;;;7.37;89.30
74045;BME280;62389;51.412;5.436;2022-11-04T06:28:39;100331.97;;;7.35;89.16
74045;BME280;62389;51.412;5.436;2022-11-04T06:31:07;100330.38;;;7.31;89.56
74045;BME280;62389;51.412;5.436;2022-11-04T06:33:33;100334.75;;;7.30;89.28
74045;BME280;62389;51.412;5.436;2022-11-04T06:35:59;100331.28;;;7.30;89.74
74045;BME280;62389;51.412;5.436;2022-11-04T06:38:27;100327.84;;;7.29;89.54
74045;BME280;62389;51.412;5.436;2022-11-04T06:40:53;100334.75;;;7.30;89.80
74045;BME280;62389;51.412;5.436;2022-11-04T06:43:18;100332.91;;;7.32;90.31
74045;BME280;62389;51.412;5.436;2022-11-04T06:45:43;100337.09;;;7.36;89.77
74045;BME280;62389;51.412;5.436;2022-11-04T06:48:09;100341.28;;;7.40;89.84
74045;BME280;62389;51.412;5.436;2022-11-04T06:50:34;100344.63;;;7.44;90.43
74045;BME280;62389;51.412;5.436;2022-11-04T06:52:59;100350.50;;;7.49;91.16
74045;BME280;62389;51.412;5.436;2022-11-04T06:55:25;100341.72;;;7.51;90.42
74045;BME280;62389;51.412;5.436;2022-11-04T06:57:50;100346.88;;;7.53;90.66
74045;BME280;62389;51.412;5.436;2022-11-04T07:00:16;100352.84;;;7.55;91.41
74045;BME280;62389;51.412;5.436;2022-11-04T07:02:42;100350.84;;;7.62;91.11
74045;BME280;62389;51.412;5.436;2022-11-04T07:05:07;100349.75;;;7.67;90.89
74045;BME280;62389;51.412;5.436;2022-11-04T07:07:33;100349.59;;;7.72;91.21
74045;BME280;62389;51.412;5.436;2022-11-04T07:09:58;100354.59;;;7.76;90.99
74045;BME280;62389;51.412;5.436;2022-11-04T07:12:24;100359.56;;;7.83;90.85
74045;BME280;62389;51.412;5.436;2022-11-04T07:14:50;100368.94;;;7.87;90.82
74045;BME280;62389;51.412;5.436;2022-11-04T07:17:15;100371.44;;;7.90;90.95
74045;BME280;62389;51.412;5.436;2022-11-04T07:19:41;100373.03;;;7.94;90.58
74045;BME280;62389;51.412;5.436;2022-11-04T07:22:06;100371.13;;;7.97;90.97
74045;BME280;62389;51.412;5.436;2022-11-04T07:24:32;100374.38;;;8.02;91.18
74045;BME280;62389;51.412;5.436;2022-11-04T07:26:58;100380.34;;;8.06;90.25
74045;BME280;62389;51.412;5.436;2022-11-04T07:29:23;100381.97;;;8.09;90.74
74045;BME280;62389;51.412;5.436;2022-11-04T07:31:49;100375.00;;;8.09;91.24
74045;BME280;62389;51.412;5.436;2022-11-04T07:34:15;100387.88;;;8.12;91.39
74045;BME280;62389;51.412;5.436;2022-11-04T07:36:40;100386.97;;;8.13;91.21
74045;BME280;62389;51.412;5.436;2022-11-04T07:39:06;100382.63;;;8.14;90.55
74045;BME280;62389;51.412;5.436;2022-11-04T07:41:31;100386.88;;;8.16;91.47
74045;BME280;62389;51.412;5.436;2022-11-04T07:43:56;100392.88;;;8.18;90.72
74045;BME280;62389;51.412;5.436;2022-11-04T07:46:23;100396.13;;;8.23;91.34
74045;BME280;62389;51.412;5.436;2022-11-04T07:48:48;100401.09;;;8.29;90.84
74045;BME280;62389;51.412;5.436;2022-11-04T07:51:15;100411.25;;;8.36;90.84
74045;BME280;62389;51.412;5.436;2022-11-04T07:53:41;100410.91;;;8.45;91.23
74045;BME280;62389;51.412;5.436;2022-11-04T07:56:09;100401.72;;;8.56;91.11
74045;BME280;62389;51.412;5.436;2022-11-04T07:58:38;100413.25;;;8.71;90.31
74045;BME280;62389;51.412;5.436;2022-11-04T08:01:06;100416.91;;;8.88;90.54
74045;BME280;62389;51.412;5.436;2022-11-04T08:03:32;100422.09;;;9.08;90.32
74045;BME280;62389;51.412;5.436;2022-11-04T08:06:00;100413.56;;;9.23;89.37
74045;BME280;62389;51.412;5.436;2022-11-04T08:08:27;100415.94;;;9.29;88.00
74045;BME280;62389;51.412;5.436;2022-11-04T08:10:58;100418.88;;;9.22;87.93
74045;BME280;62389;51.412;5.436;2022-11-04T08:13:32;100421.75;;;9.16;88.71
74045;BME280;62389;51.412;5.436;2022-11-04T08:16:03;100428.88;;;9.12;88.30
74045;BME280;62389;51.412;5.436;2022-11-04T08:18:31;100430.84;;;9.07;88.55
74045;BME280;62389;51.412;5.436;2022-11-04T08:20:56;100436.19;;;9.04;88.63
74045;BME280;62389;51.412;5.436;2022-11-04T08:23:22;100436.06;;;9.07;89.22
74045;BME280;62389;51.412;5.436;2022-11-04T08:25:47;100438.25;;;9.16;88.53
74045;BME280;62389;51.412;5.436;2022-11-04T08:28:12;100444.03;;;9.23;88.19
74045;BME280;62389;51.412;5.436;2022-11-04T08:31:05;100450.75;;;9.28;87.86
74045;BME280;62389;51.412;5.436;2022-11-04T08:33:33;100450.06;;;9.25;87.01
74045;BME280;62389;51.412;5.436;2022-11-04T08:36:03;100450.72;;;9.30;87.50
74045;BME280;62389;51.412;5.436;2022-11-04T08:38:28;100455.28;;;9.44;87.46
74045;BME280;62389;51.412;5.436;2022-11-04T08:40:58;100453.63;;;9.62;87.73
74045;BME280;62389;51.412;5.436;2022-11-04T08:43:24;100455.44;;;9.78;86.37
74045;BME280;62389;51.412;5.436;2022-11-04T08:45:50;100452.28;;;9.91;86.92
74045;BME280;62389;51.412;5.436;2022-11-04T08:48:16;100452.41;;;10.06;87.04
74045;BME280;62389;51.412;5.436;2022-11-04T08:50:42;100451.88;;;10.17;84.65
74045;BME280;62389;51.412;5.436;2022-11-04T08:53:07;100453.88;;;10.12;84.18
74045;BME280;62389;51.412;5.436;2022-11-04T08:55:33;100459.09;;;10.12;85.04
74045;BME280;62389;51.412;5.436;2022-11-04T08:58:00;100462.94;;;10.22;85.42
74045;BME280;62389;51.412;5.436;2022-11-04T09:00:25;100463.31;;;10.33;83.82
74045;BME280;62389;51.412;5.436;2022-11-04T09:02:51;100469.63;;;10.47;84.22
74045;BME280;62389;51.412;5.436;2022-11-04T09:05:16;100477.50;;;10.47;81.94
74045;BME280;62389;51.412;5.436;2022-11-04T09:07:42;100481.13;;;10.44;83.08
74045;BME280;62389;51.412;5.436;2022-11-04T09:10:08;100483.66;;;10.46;83.96
74045;BME280;62389;51.412;5.436;2022-11-04T09:12:34;100489.00;;;10.43;83.74
74045;BME280;62389;51.412;5.436;2022-11-04T09:15:00;100493.00;;;10.32;83.11
74045;BME280;62389;51.412;5.436;2022-11-04T09:17:25;100497.69;;;10.26;83.76
74045;BME280;62389;51.412;5.436;2022-11-04T09:19:50;100497.84;;;10.21;84.56
74045;BME280;62389;51.412;5.436;2022-11-04T09:22:16;100496.59;;;10.11;84.90
74045;BME280;62389;51.412;5.436;2022-11-04T09:24:42;100499.50;;;10.05;84.59
74045;BME280;62389;51.412;5.436;2022-11-04T09:27:08;100500.47;;;10.02;85.08
74045;BME280;62389;51.412;5.436;2022-11-04T09:29:33;100505.78;;;10.01;85.81
74045;BME280;62389;51.412;5.436;2022-11-04T09:32:01;100517.28;;;9.97;86.04
74045;BME280;62389;51.412;5.436;2022-11-04T09:34:26;100516.59;;;9.93;85.92
74045;BME280;62389;51.412;5.436;2022-11-04T09:36:55;100521.97;;;9.90;85.33
74045;BME280;62389;51.412;5.436;2022-11-04T09:39:22;100524.50;;;9.92;86.08
74045;BME280;62389;51.412;5.436;2022-11-04T09:44:38;100532.41;;;9.90;86.39
74045;BME280;62389;51.412;5.436;2022-11-04T09:47:08;100534.94;;;9.92;86.25
74045;BME280;62389;51.412;5.436;2022-11-04T09:49:38;100534.66;;;9.98;86.49
74045;BME280;62389;51.412;5.436;2022-11-04T09:52:17;100540.47;;;10.04;85.96
74045;BME280;62389;51.412;5.436;2022-11-04T09:57:36;100548.28;;;10.23;85.67
74045;BME280;62389;51.412;5.436;2022-11-04T10:00:02;100535.81;;;10.30;85.45
74045;BME280;62389;51.412;5.436;2022-11-04T10:21:31;100560.75;;;10.73;83.21
74045;BME280;62389;51.412;5.436;2022-11-04T10:29:05;100567.84;;;10.71;84.26
74045;BME280;62389;51.412;5.436;2022-11-04T10:31:36;100572.75;;;10.77;84.96
74045;BME280;62389;51.412;5.436;2022-11-04T10:34:06;100576.84;;;10.83;85.04
74045;BME280;62389;51.412;5.436;2022-11-04T10:36:35;100578.47;;;10.85;83.47
74045;BME280;62389;51.412;5.436;2022-11-04T10:39:05;100581.00;;;10.87;84.01
74045;BME280;62389;51.412;5.436;2022-11-04T10:41:36;100593.13;;;10.89;83.44
74045;BME280;62389;51.412;5.436;2022-11-04T10:47:05;100596.78;;;10.85;82.58
74045;BME280;62389;51.412;5.436;2022-11-04T10:52:05;100583.75;;;10.84;83.25
74045;BME280;62389;51.412;5.436;2022-11-04T10:54:38;100585.09;;;10.93;83.12
74045;BME280;62389;51.412;5.436;2022-11-04T10:57:04;100582.03;;;11.02;82.94
74045;BME280;62389;51.412;5.436;2022-11-04T11:02:18;100587.41;;;11.33;83.01
74045;BME280;62389;51.412;5.436;2022-11-04T11:04:43;100588.81;;;11.40;81.84
74045;BME280;62389;51.412;5.436;2022-11-04T11:07:12;100585.19;;;11.43;82.20
74045;BME280;62389;51.412;5.436;2022-11-04T11:09:51;100582.50;;;11.45;81.79
74045;BME280;62389;51.412;5.436;2022-11-04T11:12:20;100578.47;;;11.37;81.61
74045;BME280;62389;51.412;5.436;2022-11-04T11:14:55;100585.88;;;11.29;80.98
74045;BME280;62389;51.412;5.436;2022-11-04T11:17:24;100587.97;;;11.23;81.74
74045;BME280;62389;51.412;5.436;2022-11-04T11:20:01;100588.97;;;11.20;82.44
74045;BME280;62389;51.412;5.436;2022-11-04T11:22:37;100592.66;;;11.33;82.79
74045;BME280;62389;51.412;5.436;2022-11-04T11:27:39;100597.47;;;12.09;79.89
74045;BME280;62389;51.412;5.436;2022-11-04T11:30:06;100593.38;;;12.36;79.02
74045;BME280;62389;51.412;5.436;2022-11-04T11:32:43;100594.38;;;12.65;79.46
74045;BME280;62389;51.412;5.436;2022-11-04T11:35:16;100592.13;;;12.89;76.71
74045;BME280;62389;51.412;5.436;2022-11-04T11:37:44;100587.50;;;13.09;77.14
74045;BME280;62389;51.412;5.436;2022-11-04T11:40:32;100592.69;;;13.40;78.92
74045;BME280;62389;51.412;5.436;2022-11-04T11:43:00;100591.88;;;13.83;75.44
74045;BME280;62389;51.412;5.436;2022-11-04T11:45:26;100589.34;;;14.10;73.54
74045;BME280;62389;51.412;5.436;2022-11-04T11:47:52;100596.47;;;14.22;71.81
74045;BME280;62389;51.412;5.436;2022-11-04T11:50:24;100602.19;;;14.14;71.91
74045;BME280;62389;51.412;5.436;2022-11-04T11:53:12;100608.91;;;13.91;73.74
74045;BME280;62389;51.412;5.436;2022-11-04T11:55:42;100616.56;;;13.66;72.09
74045;BME280;62389;51.412;5.436;2022-11-04T11:58:24;100615.41;;;13.41;74.42
74045;BME280;62389;51.412;5.436;2022-11-04T12:01:03;100619.19;;;13.21;74.26
74045;BME280;62389;51.412;5.436;2022-11-04T12:03:43;100616.31;;;13.26;75.69
74045;BME280;62389;51.412;5.436;2022-11-04T12:13:48;100624.06;;;15.12;70.85
74045;BME280;62389;51.412;5.436;2022-11-04T12:19:26;100624.91;;;15.65;70.48
74045;BME280;62389;51.412;5.436;2022-11-04T12:22:33;100621.72;;;16.11;70.09
74045;BME280;62389;51.412;5.436;2022-11-04T12:31:31;100620.28;;;19.91;59.89
74045;BME280;62389;51.412;5.436;2022-11-04T12:44:51;100649.84;;;20.07;50.86
74045;BME280;62389;51.412;5.436;2022-11-04T12:47:40;100646.97;;;19.15;57.02
74045;BME280;62389;51.412;5.436;2022-11-04T12:50:34;100655.03;;;18.93;53.25
74045;BME280;62389;51.412;5.436;2022-11-04T13:04:26;100682.00;;;15.39;60.72
74045;BME280;62389;51.412;5.436;2022-11-04T13:07:12;100678.66;;;14.95;62.92
74045;BME280;62389;51.412;5.436;2022-11-04T13:09:44;100682.63;;;14.47;65.53
74045;BME280;62389;51.412;5.436;2022-11-04T13:12:15;100693.81;;;14.22;65.10
74045;BME280;62389;51.412;5.436;2022-11-04T13:14:46;100696.69;;;14.03;67.05
74045;BME280;62389;51.412;5.436;2022-11-04T13:17:17;100695.84;;;13.88;66.25
74045;BME280;62389;51.412;5.436;2022-11-04T13:19:45;100694.59;;;13.80;66.64
74045;BME280;62389;51.412;5.436;2022-11-04T13:22:15;100694.50;;;13.81;67.12
74045;BME280;62389;51.412;5.436;2022-11-04T13:24:51;100699.94;;;13.78;68.02
74045;BME280;62389;51.412;5.436;2022-11-04T13:27:20;100700.13;;;13.75;67.52
74045;BME280;62389;51.412;5.436;2022-11-04T13:29:48;100703.31;;;13.80;67.64
74045;BME280;62389;51.412;5.436;2022-11-04T13:32:39;100708.59;;;13.94;68.69
74045;BME280;62389;51.412;5.436;2022-11-04T13:35:26;100723.19;;;14.14;68.16
74045;BME280;62389;51.412;5.436;2022-11-04T13:38:08;100726.50;;;14.18;68.40
74045;BME280;62389;51.412;5.436;2022-11-04T13:43:37;100741.09;;;13.93;67.92
74045;BME280;62389;51.412;5.436;2022-11-04T13:49:02;100735.44;;;13.71;69.31
74045;BME280;62389;51.412;5.436;2022-11-04T13:52:01;100741.22;;;13.62;69.37
74045;BME280;62389;51.412;5.436;2022-11-04T13:54:40;100746.16;;;13.52;69.64
74045;BME280;62389;51.412;5.436;2022-11-04T13:57:10;100747.41;;;13.45;69.31
74045;BME280;62389;51.412;5.436;2022-11-04T13:59:37;100754.81;;;13.38;68.67
74045;BME280;62389;51.412;5.436;2022-11-04T14:04:44;100748.38;;;13.28;69.51
74045;BME280;62389;51.412;5.436;2022-11-04T14:07:14;100755.66;;;13.23;69.84
74045;BME280;62389;51.412;5.436;2022-11-04T14:14:42;100769.38;;;13.44;70.03
74045;BME280;62389;51.412;5.436;2022-11-04T14:22:35;100784.31;;;13.28;70.63
74045;BME280;62389;51.412;5.436;2022-11-04T14:25:37;100780.56;;;13.16;70.11
74045;BME280;62389;51.412;5.436;2022-11-04T14:28:48;100793.41;;;13.05;70.69
74045;BME280;62389;51.412;5.436;2022-11-04T14:30:52;100792.81;;;13.00;71.01
74045;BME280;62389;51.412;5.436;2022-11-04T14:33:22;100792.06;;;12.98;71.31
74045;BME280;62389;51.412;5.436;2022-11-04T14:35:52;100802.91;;;12.91;71.19
74045;BME280;62389;51.412;5.436;2022-11-04T14:38:29;100807.59;;;12.85;71.07
74045;BME280;62389;51.412;5.436;2022-11-04T14:43:46;100818.25;;;12.66;72.15
74045;BME280;62389;51.412;5.436;2022-11-04T14:46:18;100819.59;;;12.57;72.40
74045;BME280;62389;51.412;5.436;2022-11-04T14:48:46;100819.06;;;12.51;73.75
74045;BME280;62389;51.412;5.436;2022-11-04T14:51:26;100830.72;;;12.45;73.59
74045;BME280;62389;51.412;5.436;2022-11-04T14:54:02;100838.88;;;12.39;73.46
74045;BME280;62389;51.412;5.436;2022-11-04T14:56:28;100846.94;;;12.36;73.48
74045;BME280;62389;51.412;5.436;2022-11-04T14:59:05;100843.53;;;12.34;73.11
74045;BME280;62389;51.412;5.436;2022-11-04T15:01:37;100849.78;;;12.31;73.31
74045;BME280;62389;51.412;5.436;2022-11-04T15:04:13;100857.03;;;12.26;73.10
74045;BME280;62389;51.412;5.436;2022-11-04T15:06:42;100855.47;;;12.22;73.37
74045;BME280;62389;51.412;5.436;2022-11-04T15:09:23;100865.22;;;12.20;73.20
74045;BME280;62389;51.412;5.436;2022-11-04T15:11:49;100864.44;;;12.18;73.71
74045;BME280;62389;51.412;5.436;2022-11-04T15:14:35;100877.63;;;12.16;73.46
74045;BME280;62389;51.412;5.436;2022-11-04T15:17:01;100875.09;;;12.15;73.86
74045;BME280;62389;51.412;5.436;2022-11-04T15:19:34;100890.81;;;12.15;74.23